sensor_id;sensor_type;location;lat;lon;timestamp;temperature;humidity
41220;DHT22;26951;47.338;9.196;2024-01-30T00:01:46;2.00;46.10
41220;DHT22;26951;47.338;9.196;2024-01-30T00:04:30;2.00;47.00
41220;DHT22;26951;47.338;9.196;2024-01-30T00:07:14;1.90;47.00
41220;DHT22;26951;47.338;9.196;2024-01-30T00:09:58;1.90;47.00
41220;DHT22;26951;47.338;9.196;2024-01-30T00:12:42;2.00;46.90
41220;DHT22;26951;47.338;9.196;2024-01-30T00:15:26;2.00;47.20
41220;DHT22;26951;47.338;9.196;2024-01-30T00:18:10;1.90;47.30
41220;DHT22;26951;47.338;9.196;2024-01-30T00:20:54;1.90;47.30
41220;DHT22;26951;47.338;9.196;2024-01-30T00:23:39;1.90;47.70
41220;DHT22;26951;47.338;9.196;2024-01-30T00:26:23;1.90;48.10
41220;DHT22;26951;47.338;9.196;2024-01-30T00:29:07;1.80;48.20
41220;DHT22;26951;47.338;9.196;2024-01-30T00:31:51;1.80;48.30
41220;DHT22;26951;47.338;9.196;2024-01-30T00:34:35;1.80;47.90
41220;DHT22;26951;47.338;9.196;2024-01-30T00:37:18;1.70;47.50
41220;DHT22;26951;47.338;9.196;2024-01-30T00:40:03;1.80;47.00
41220;DHT22;26951;47.338;9.196;2024-01-30T00:42:47;1.90;46.60
41220;DHT22;26951;47.338;9.196;2024-01-30T00:45:31;1.90;46.80
41220;DHT22;26951;47.338;9.196;2024-01-30T00:48:15;1.90;46.80
41220;DHT22;26951;47.338;9.196;2024-01-30T00:50:59;1.80;46.80
41220;DHT22;26951;47.338;9.196;2024-01-30T00:53:43;1.80;47.50
41220;DHT22;26951;47.338;9.196;2024-01-30T00:56:27;1.80;48.40
41220;DHT22;26951;47.338;9.196;2024-01-30T00:59:12;1.80;48.10
41220;DHT22;26951;47.338;9.196;2024-01-30T01:01:56;1.80;48.40
41220;DHT22;26951;47.338;9.196;2024-01-30T01:04:40;1.80;48.40
41220;DHT22;26951;47.338;9.196;2024-01-30T01:07:24;1.70;48.30
41220;DHT22;26951;47.338;9.196;2024-01-30T01:10:08;1.70;48.40
41220;DHT22;26951;47.338;9.196;2024-01-30T01:12:52;1.70;48.20
41220;DHT22;26951;47.338;9.196;2024-01-30T01:15:36;1.70;47.40
41220;DHT22;26951;47.338;9.196;2024-01-30T01:18:21;1.70;47.60
41220;DHT22;26951;47.338;9.196;2024-01-30T01:21:05;1.70;47.80
41220;DHT22;26951;47.338;9.196;2024-01-30T01:23:49;1.70;47.80
41220;DHT22;26951;47.338;9.196;2024-01-30T01:26:33;1.70;47.80
41220;DHT22;26951;47.338;9.196;2024-01-30T01:29:17;1.70;47.70
41220;DHT22;26951;47.338;9.196;2024-01-30T01:32:01;1.60;48.00
41220;DHT22;26951;47.338;9.196;2024-01-30T01:34:46;1.60;47.40
41220;DHT22;26951;47.338;9.196;2024-01-30T01:37:31;1.60;47.60
41220;DHT22;26951;47.338;9.196;2024-01-30T01:40:15;1.60;47.20
41220;DHT22;26951;47.338;9.196;2024-01-30T01:43:03;1.60;46.90
41220;DHT22;26951;47.338;9.196;2024-01-30T01:45:49;1.70;46.80
41220;DHT22;26951;47.338;9.196;2024-01-30T01:48:33;1.70;46.70
41220;DHT22;26951;47.338;9.196;2024-01-30T01:51:17;1.70;46.70
41220;DHT22;26951;47.338;9.196;2024-01-30T01:54:05;1.60;46.80
41220;DHT22;26951;47.338;9.196;2024-01-30T01:56:50;1.60;46.30
41220;DHT22;26951;47.338;9.196;2024-01-30T01:59:34;1.60;46.20
41220;DHT22;26951;47.338;9.196;2024-01-30T02:04:52;1.70;46.40
41220;DHT22;26951;47.338;9.196;2024-01-30T02:07:37;1.60;46.90
41220;DHT22;26951;47.338;9.196;2024-01-30T02:10:21;1.60;47.40
41220;DHT22;26951;47.338;9.196;2024-01-30T02:13:05;1.60;47.70
41220;DHT22;26951;47.338;9.196;2024-01-30T02:15:53;1.60;48.00
41220;DHT22;26951;47.338;9.196;2024-01-30T02:18:37;1.50;47.80
41220;DHT22;26951;47.338;9.196;2024-01-30T02:21:25;1.50;47.80
41220;DHT22;26951;47.338;9.196;2024-01-30T02:24:09;1.50;48.30
41220;DHT22;26951;47.338;9.196;2024-01-30T02:26:53;1.40;48.20
41220;DHT22;26951;47.338;9.196;2024-01-30T02:29:37;1.40;48.30
41220;DHT22;26951;47.338;9.196;2024-01-30T02:32:21;1.50;47.30
41220;DHT22;26951;47.338;9.196;2024-01-30T02:35:06;1.60;47.20
41220;DHT22;26951;47.338;9.196;2024-01-30T02:37:50;1.50;47.30
41220;DHT22;26951;47.338;9.196;2024-01-30T02:40:34;1.60;46.60
41220;DHT22;26951;47.338;9.196;2024-01-30T02:43:18;1.60;46.50
41220;DHT22;26951;47.338;9.196;2024-01-30T02:46:02;1.50;46.70
41220;DHT22;26951;47.338;9.196;2024-01-30T02:48:46;1.50;46.40
41220;DHT22;26951;47.338;9.196;2024-01-30T02:51:30;1.60;45.80
41220;DHT22;26951;47.338;9.196;2024-01-30T02:54:15;1.70;46.60
41220;DHT22;26951;47.338;9.196;2024-01-30T02:56:59;1.60;47.40
41220;DHT22;26951;47.338;9.196;2024-01-30T02:59:43;1.70;47.00
41220;DHT22;26951;47.338;9.196;2024-01-30T03:02:27;1.60;47.30
41220;DHT22;26951;47.338;9.196;2024-01-30T03:05:11;1.60;47.10
41220;DHT22;26951;47.338;9.196;2024-01-30T03:07:56;1.50;47.60
41220;DHT22;26951;47.338;9.196;2024-01-30T03:10:40;1.50;47.50
41220;DHT22;26951;47.338;9.196;2024-01-30T03:13:24;1.50;47.60
41220;DHT22;26951;47.338;9.196;2024-01-30T03:16:09;1.40;47.90
41220;DHT22;26951;47.338;9.196;2024-01-30T03:18:53;1.40;47.90
41220;DHT22;26951;47.338;9.196;2024-01-30T03:21:39;1.40;48.00
41220;DHT22;26951;47.338;9.196;2024-01-30T03:24:23;1.40;47.80
41220;DHT22;26951;47.338;9.196;2024-01-30T03:27:08;1.30;47.70
41220;DHT22;26951;47.338;9.196;2024-01-30T03:29:52;1.30;47.70
41220;DHT22;26951;47.338;9.196;2024-01-30T03:32:42;1.30;47.90
41220;DHT22;26951;47.338;9.196;2024-01-30T03:35:26;1.30;47.70
41220;DHT22;26951;47.338;9.196;2024-01-30T03:38:10;1.30;47.70
41220;DHT22;26951;47.338;9.196;2024-01-30T03:40:54;1.30;47.80
41220;DHT22;26951;47.338;9.196;2024-01-30T03:43:39;1.30;47.80
41220;DHT22;26951;47.338;9.196;2024-01-30T03:46:23;1.20;47.80
41220;DHT22;26951;47.338;9.196;2024-01-30T03:49:07;1.20;47.70
41220;DHT22;26951;47.338;9.196;2024-01-30T03:51:51;1.20;48.00
41220;DHT22;26951;47.338;9.196;2024-01-30T03:54:35;1.20;48.20
41220;DHT22;26951;47.338;9.196;2024-01-30T03:57:19;1.20;47.90
41220;DHT22;26951;47.338;9.196;2024-01-30T04:00:04;1.20;48.10
41220;DHT22;26951;47.338;9.196;2024-01-30T04:02:48;1.10;48.40
41220;DHT22;26951;47.338;9.196;2024-01-30T04:05:35;1.20;47.90
41220;DHT22;26951;47.338;9.196;2024-01-30T04:08:19;1.20;47.70
41220;DHT22;26951;47.338;9.196;2024-01-30T04:11:07;1.20;48.00
41220;DHT22;26951;47.338;9.196;2024-01-30T04:13:51;1.20;48.20
41220;DHT22;26951;47.338;9.196;2024-01-30T04:16:35;1.20;48.10
41220;DHT22;26951;47.338;9.196;2024-01-30T04:19:20;1.20;49.30
41220;DHT22;26951;47.338;9.196;2024-01-30T04:22:04;1.20;49.10
41220;DHT22;26951;47.338;9.196;2024-01-30T04:24:48;1.10;49.40
41220;DHT22;26951;47.338;9.196;2024-01-30T04:27:32;1.10;49.60
41220;DHT22;26951;47.338;9.196;2024-01-30T04:30:16;1.10;49.40
41220;DHT22;26951;47.338;9.196;2024-01-30T04:33:00;1.10;49.00
41220;DHT22;26951;47.338;9.196;2024-01-30T04:35:44;1.10;49.20
41220;DHT22;26951;47.338;9.196;2024-01-30T04:38:29;1.10;49.50
41220;DHT22;26951;47.338;9.196;2024-01-30T04:41:13;1.00;49.60
41220;DHT22;26951;47.338;9.196;2024-01-30T04:43:57;1.00;50.10
41220;DHT22;26951;47.338;9.196;2024-01-30T04:46:42;1.00;50.10
41220;DHT22;26951;47.338;9.196;2024-01-30T04:49:27;1.00;50.00
41220;DHT22;26951;47.338;9.196;2024-01-30T04:52:11;1.10;48.90
41220;DHT22;26951;47.338;9.196;2024-01-30T04:54:56;1.20;47.90
41220;DHT22;26951;47.338;9.196;2024-01-30T04:57:40;1.40;47.90
41220;DHT22;26951;47.338;9.196;2024-01-30T05:00:24;1.40;47.40
41220;DHT22;26951;47.338;9.196;2024-01-30T05:03:08;1.50;47.20
41220;DHT22;26951;47.338;9.196;2024-01-30T05:05:52;1.60;46.80
41220;DHT22;26951;47.338;9.196;2024-01-30T05:08:36;1.60;46.50
41220;DHT22;26951;47.338;9.196;2024-01-30T05:11:20;1.70;46.10
41220;DHT22;26951;47.338;9.196;2024-01-30T05:14:05;1.80;46.50
41220;DHT22;26951;47.338;9.196;2024-01-30T05:16:50;1.70;46.90
41220;DHT22;26951;47.338;9.196;2024-01-30T05:19:34;1.70;47.30
41220;DHT22;26951;47.338;9.196;2024-01-30T05:22:18;1.70;47.40
41220;DHT22;26951;47.338;9.196;2024-01-30T05:25:03;1.60;47.70
41220;DHT22;26951;47.338;9.196;2024-01-30T05:27:47;1.50;47.90
41220;DHT22;26951;47.338;9.196;2024-01-30T05:30:31;1.50;47.70
41220;DHT22;26951;47.338;9.196;2024-01-30T05:33:15;1.40;47.50
41220;DHT22;26951;47.338;9.196;2024-01-30T05:36:00;1.40;47.60
41220;DHT22;26951;47.338;9.196;2024-01-30T05:38:44;1.30;48.30
41220;DHT22;26951;47.338;9.196;2024-01-30T05:41:28;1.30;48.60
41220;DHT22;26951;47.338;9.196;2024-01-30T05:44:12;1.20;48.50
41220;DHT22;26951;47.338;9.196;2024-01-30T05:46:56;1.20;48.50
41220;DHT22;26951;47.338;9.196;2024-01-30T05:49:40;1.30;48.00
41220;DHT22;26951;47.338;9.196;2024-01-30T05:52:24;1.20;48.20
41220;DHT22;26951;47.338;9.196;2024-01-30T05:55:09;1.30;48.30
41220;DHT22;26951;47.338;9.196;2024-01-30T05:57:54;1.30;47.90
41220;DHT22;26951;47.338;9.196;2024-01-30T06:00:38;1.40;47.10
41220;DHT22;26951;47.338;9.196;2024-01-30T06:03:22;1.40;47.60
41220;DHT22;26951;47.338;9.196;2024-01-30T06:06:06;1.40;48.10
41220;DHT22;26951;47.338;9.196;2024-01-30T06:08:50;1.40;47.90
41220;DHT22;26951;47.338;9.196;2024-01-30T06:11:34;1.30;47.80
41220;DHT22;26951;47.338;9.196;2024-01-30T06:14:19;1.30;48.20
41220;DHT22;26951;47.338;9.196;2024-01-30T06:17:03;1.30;48.50
41220;DHT22;26951;47.338;9.196;2024-01-30T06:19:47;1.10;49.10
41220;DHT22;26951;47.338;9.196;2024-01-30T06:22:32;1.10;49.30
41220;DHT22;26951;47.338;9.196;2024-01-30T06:25:16;1.20;48.70
41220;DHT22;26951;47.338;9.196;2024-01-30T06:28:00;1.30;48.10
41220;DHT22;26951;47.338;9.196;2024-01-30T06:30:44;1.40;47.60
41220;DHT22;26951;47.338;9.196;2024-01-30T06:33:28;1.30;48.00
41220;DHT22;26951;47.338;9.196;2024-01-30T06:36:12;1.40;48.10
41220;DHT22;26951;47.338;9.196;2024-01-30T06:38:56;1.40;47.70
41220;DHT22;26951;47.338;9.196;2024-01-30T06:41:40;1.50;47.20
41220;DHT22;26951;47.338;9.196;2024-01-30T06:44:24;1.60;47.00
41220;DHT22;26951;47.338;9.196;2024-01-30T06:47:08;1.70;46.70
41220;DHT22;26951;47.338;9.196;2024-01-30T06:49:52;1.60;46.60
41220;DHT22;26951;47.338;9.196;2024-01-30T06:52:36;1.60;46.70
41220;DHT22;26951;47.338;9.196;2024-01-30T06:55:20;1.50;46.90
41220;DHT22;26951;47.338;9.196;2024-01-30T06:58:04;1.50;47.00
41220;DHT22;26951;47.338;9.196;2024-01-30T07:00:48;1.50;46.20
41220;DHT22;26951;47.338;9.196;2024-01-30T07:03:32;1.60;46.20
41220;DHT22;26951;47.338;9.196;2024-01-30T07:06:16;1.60;46.10
41220;DHT22;26951;47.338;9.196;2024-01-30T07:09:00;1.70;45.80
41220;DHT22;26951;47.338;9.196;2024-01-30T07:11:44;1.70;45.90
41220;DHT22;26951;47.338;9.196;2024-01-30T07:14:29;1.80;46.30
41220;DHT22;26951;47.338;9.196;2024-01-30T07:17:13;1.80;46.00
41220;DHT22;26951;47.338;9.196;2024-01-30T07:19:57;1.90;45.90
41220;DHT22;26951;47.338;9.196;2024-01-30T07:22:41;2.00;46.80
41220;DHT22;26951;47.338;9.196;2024-01-30T07:25:25;2.00;47.00
41220;DHT22;26951;47.338;9.196;2024-01-30T07:28:11;1.90;47.40
41220;DHT22;26951;47.338;9.196;2024-01-30T07:30:56;1.90;47.40
41220;DHT22;26951;47.338;9.196;2024-01-30T07:33:40;1.90;47.90
41220;DHT22;26951;47.338;9.196;2024-01-30T07:36:24;1.90;48.60
41220;DHT22;26951;47.338;9.196;2024-01-30T07:39:08;1.90;49.00
41220;DHT22;26951;47.338;9.196;2024-01-30T07:41:54;1.90;49.50
41220;DHT22;26951;47.338;9.196;2024-01-30T07:44:38;2.00;50.30
41220;DHT22;26951;47.338;9.196;2024-01-30T07:47:22;1.90;50.10
41220;DHT22;26951;47.338;9.196;2024-01-30T07:50:06;2.00;50.10
41220;DHT22;26951;47.338;9.196;2024-01-30T07:52:51;2.00;50.30
41220;DHT22;26951;47.338;9.196;2024-01-30T07:55:38;2.10;50.90
41220;DHT22;26951;47.338;9.196;2024-01-30T07:58:23;2.10;51.00
41220;DHT22;26951;47.338;9.196;2024-01-30T08:01:08;2.10;51.50
41220;DHT22;26951;47.338;9.196;2024-01-30T08:03:52;2.20;51.40
41220;DHT22;26951;47.338;9.196;2024-01-30T08:06:36;2.30;51.60
41220;DHT22;26951;47.338;9.196;2024-01-30T08:09:20;2.30;52.40
41220;DHT22;26951;47.338;9.196;2024-01-30T08:12:04;2.40;52.90
41220;DHT22;26951;47.338;9.196;2024-01-30T08:14:48;2.40;53.10
41220;DHT22;26951;47.338;9.196;2024-01-30T08:17:33;2.50;52.90
41220;DHT22;26951;47.338;9.196;2024-01-30T08:20:17;2.60;52.80
41220;DHT22;26951;47.338;9.196;2024-01-30T08:23:02;2.60;53.30
41220;DHT22;26951;47.338;9.196;2024-01-30T08:25:45;2.70;53.70
41220;DHT22;26951;47.338;9.196;2024-01-30T08:28:30;2.70;54.10
41220;DHT22;26951;47.338;9.196;2024-01-30T08:31:14;2.70;54.60
41220;DHT22;26951;47.338;9.196;2024-01-30T08:33:58;2.80;54.60
41220;DHT22;26951;47.338;9.196;2024-01-30T08:36:42;2.80;55.00
41220;DHT22;26951;47.338;9.196;2024-01-30T08:39:26;2.80;55.50
41220;DHT22;26951;47.338;9.196;2024-01-30T08:42:10;2.90;56.20
41220;DHT22;26951;47.338;9.196;2024-01-30T08:44:55;3.00;57.30
41220;DHT22;26951;47.338;9.196;2024-01-30T08:47:40;3.10;57.00
41220;DHT22;26951;47.338;9.196;2024-01-30T08:50:24;3.20;57.20
41220;DHT22;26951;47.338;9.196;2024-01-30T08:53:09;3.40;57.80
41220;DHT22;26951;47.338;9.196;2024-01-30T08:55:53;3.60;58.50
41220;DHT22;26951;47.338;9.196;2024-01-30T08:58:37;3.80;59.20
41220;DHT22;26951;47.338;9.196;2024-01-30T09:01:21;4.00;60.00
41220;DHT22;26951;47.338;9.196;2024-01-30T09:04:05;4.30;59.50
41220;DHT22;26951;47.338;9.196;2024-01-30T09:06:49;4.60;60.00
41220;DHT22;26951;47.338;9.196;2024-01-30T09:09:33;5.10;56.80
41220;DHT22;26951;47.338;9.196;2024-01-30T09:12:17;5.50;59.00
41220;DHT22;26951;47.338;9.196;2024-01-30T09:15:01;6.00;58.30
41220;DHT22;26951;47.338;9.196;2024-01-30T09:17:46;6.50;56.90
41220;DHT22;26951;47.338;9.196;2024-01-30T09:20:30;7.00;54.80
41220;DHT22;26951;47.338;9.196;2024-01-30T09:23:14;7.50;53.90
41220;DHT22;26951;47.338;9.196;2024-01-30T09:25:58;7.90;52.00
41220;DHT22;26951;47.338;9.196;2024-01-30T09:28:42;8.30;50.60
41220;DHT22;26951;47.338;9.196;2024-01-30T09:31:26;8.60;50.60
41220;DHT22;26951;47.338;9.196;2024-01-30T09:34:11;8.90;48.50
41220;DHT22;26951;47.338;9.196;2024-01-30T09:36:55;9.10;47.70
41220;DHT22;26951;47.338;9.196;2024-01-30T09:39:39;9.20;44.70
41220;DHT22;26951;47.338;9.196;2024-01-30T09:42:36;9.30;44.60
41220;DHT22;26951;47.338;9.196;2024-01-30T09:45:24;9.40;42.50
41220;DHT22;26951;47.338;9.196;2024-01-30T09:48:09;9.40;42.00
41220;DHT22;26951;47.338;9.196;2024-01-30T09:50:53;9.40;41.80
41220;DHT22;26951;47.338;9.196;2024-01-30T09:53:38;9.40;41.80
41220;DHT22;26951;47.338;9.196;2024-01-30T09:56:23;9.30;40.80
41220;DHT22;26951;47.338;9.196;2024-01-30T09:59:07;9.30;41.10
41220;DHT22;26951;47.338;9.196;2024-01-30T10:01:51;9.30;41.70
41220;DHT22;26951;47.338;9.196;2024-01-30T10:04:35;9.30;42.40
41220;DHT22;26951;47.338;9.196;2024-01-30T10:07:20;9.50;42.20
41220;DHT22;26951;47.338;9.196;2024-01-30T10:10:05;9.70;43.40
41220;DHT22;26951;47.338;9.196;2024-01-30T10:12:50;10.00;43.00
41220;DHT22;26951;47.338;9.196;2024-01-30T10:15:35;10.40;42.10
41220;DHT22;26951;47.338;9.196;2024-01-30T10:18:22;10.80;42.00
41220;DHT22;26951;47.338;9.196;2024-01-30T10:21:11;11.20;37.70
41220;DHT22;26951;47.338;9.196;2024-01-30T10:23:55;11.40;38.70
41220;DHT22;26951;47.338;9.196;2024-01-30T10:26:40;11.50;33.60
41220;DHT22;26951;47.338;9.196;2024-01-30T10:29:24;11.70;34.70
41220;DHT22;26951;47.338;9.196;2024-01-30T10:32:08;11.80;35.20
41220;DHT22;26951;47.338;9.196;2024-01-30T10:34:52;12.10;34.50
41220;DHT22;26951;47.338;9.196;2024-01-30T10:37:37;12.30;33.50
41220;DHT22;26951;47.338;9.196;2024-01-30T10:40:21;12.40;29.80
41220;DHT22;26951;47.338;9.196;2024-01-30T10:43:11;12.60;30.20
41220;DHT22;26951;47.338;9.196;2024-01-30T10:46:02;12.70;30.30
41220;DHT22;26951;47.338;9.196;2024-01-30T10:48:57;12.70;29.00
41220;DHT22;26951;47.338;9.196;2024-01-30T10:51:43;12.80;27.00
41220;DHT22;26951;47.338;9.196;2024-01-30T10:54:27;12.80;29.50
41220;DHT22;26951;47.338;9.196;2024-01-30T10:57:13;13.00;30.00
41220;DHT22;26951;47.338;9.196;2024-01-30T11:00:00;13.10;27.80
41220;DHT22;26951;47.338;9.196;2024-01-30T11:02:45;13.20;28.20
41220;DHT22;26951;47.338;9.196;2024-01-30T11:05:30;13.30;26.20
41220;DHT22;26951;47.338;9.196;2024-01-30T11:08:14;13.40;28.70
41220;DHT22;26951;47.338;9.196;2024-01-30T11:10:58;13.60;27.50
41220;DHT22;26951;47.338;9.196;2024-01-30T11:13:42;13.70;25.90
41220;DHT22;26951;47.338;9.196;2024-01-30T11:16:31;13.80;25.30
41220;DHT22;26951;47.338;9.196;2024-01-30T11:19:22;13.90;27.40
41220;DHT22;26951;47.338;9.196;2024-01-30T11:22:07;14.00;24.30
41220;DHT22;26951;47.338;9.196;2024-01-30T11:24:52;14.00;23.60
41220;DHT22;26951;47.338;9.196;2024-01-30T11:27:36;13.90;23.60
41220;DHT22;26951;47.338;9.196;2024-01-30T11:30:29;13.80;22.40
41220;DHT22;26951;47.338;9.196;2024-01-30T11:33:14;13.80;24.70
41220;DHT22;26951;47.338;9.196;2024-01-30T11:35:58;13.80;24.00
41220;DHT22;26951;47.338;9.196;2024-01-30T11:38:43;13.70;23.70
41220;DHT22;26951;47.338;9.196;2024-01-30T11:41:29;13.70;25.20
41220;DHT22;26951;47.338;9.196;2024-01-30T11:44:15;13.70;24.40
41220;DHT22;26951;47.338;9.196;2024-01-30T11:46:59;13.80;24.30
41220;DHT22;26951;47.338;9.196;2024-01-30T11:49:43;13.90;24.90
41220;DHT22;26951;47.338;9.196;2024-01-30T11:52:28;13.90;22.70
41220;DHT22;26951;47.338;9.196;2024-01-30T11:55:13;13.90;22.30
41220;DHT22;26951;47.338;9.196;2024-01-30T11:57:58;13.80;21.70
41220;DHT22;26951;47.338;9.196;2024-01-30T12:00:42;13.70;21.30
41220;DHT22;26951;47.338;9.196;2024-01-30T12:03:27;13.60;21.50
41220;DHT22;26951;47.338;9.196;2024-01-30T12:06:11;13.50;22.70
41220;DHT22;26951;47.338;9.196;2024-01-30T12:08:59;13.50;22.00
41220;DHT22;26951;47.338;9.196;2024-01-30T12:11:47;13.50;22.60
41220;DHT22;26951;47.338;9.196;2024-01-30T12:14:32;13.50;22.10
41220;DHT22;26951;47.338;9.196;2024-01-30T12:17:43;13.50;24.60
41220;DHT22;26951;47.338;9.196;2024-01-30T12:20:27;13.60;23.30
41220;DHT22;26951;47.338;9.196;2024-01-30T12:23:12;13.70;23.70
41220;DHT22;26951;47.338;9.196;2024-01-30T12:25:57;13.90;23.60
41220;DHT22;26951;47.338;9.196;2024-01-30T12:28:48;14.00;21.10
41220;DHT22;26951;47.338;9.196;2024-01-30T12:31:33;14.10;20.30
41220;DHT22;26951;47.338;9.196;2024-01-30T12:34:18;14.00;20.50
41220;DHT22;26951;47.338;9.196;2024-01-30T12:37:04;13.80;21.90
41220;DHT22;26951;47.338;9.196;2024-01-30T12:39:51;13.70;20.60
41220;DHT22;26951;47.338;9.196;2024-01-30T12:42:36;13.60;22.20
41220;DHT22;26951;47.338;9.196;2024-01-30T12:45:20;13.50;21.20
41220;DHT22;26951;47.338;9.196;2024-01-30T12:48:06;13.40;22.40
41220;DHT22;26951;47.338;9.196;2024-01-30T12:50:51;13.30;22.10
41220;DHT22;26951;47.338;9.196;2024-01-30T12:53:35;13.20;21.10
41220;DHT22;26951;47.338;9.196;2024-01-30T12:56:19;13.20;22.70
41220;DHT22;26951;47.338;9.196;2024-01-30T12:59:03;13.20;23.20
41220;DHT22;26951;47.338;9.196;2024-01-30T13:01:47;13.20;22.10
41220;DHT22;26951;47.338;9.196;2024-01-30T13:04:31;13.30;21.60
41220;DHT22;26951;47.338;9.196;2024-01-30T13:07:15;13.50;22.30
41220;DHT22;26951;47.338;9.196;2024-01-30T13:10:00;13.50;20.70
41220;DHT22;26951;47.338;9.196;2024-01-30T13:12:47;13.50;20.70
41220;DHT22;26951;47.338;9.196;2024-01-30T13:15:31;13.50;20.80
41220;DHT22;26951;47.338;9.196;2024-01-30T13:18:15;13.50;20.30
41220;DHT22;26951;47.338;9.196;2024-01-30T13:20:59;13.50;21.50
41220;DHT22;26951;47.338;9.196;2024-01-30T13:23:43;13.40;22.30
41220;DHT22;26951;47.338;9.196;2024-01-30T13:26:27;13.40;21.20
41220;DHT22;26951;47.338;9.196;2024-01-30T13:29:12;13.40;22.00
41220;DHT22;26951;47.338;9.196;2024-01-30T13:31:56;13.50;20.20
41220;DHT22;26951;47.338;9.196;2024-01-30T13:34:40;13.40;20.50
41220;DHT22;26951;47.338;9.196;2024-01-30T13:37:25;13.40;19.90
41220;DHT22;26951;47.338;9.196;2024-01-30T13:40:09;13.30;20.80
41220;DHT22;26951;47.338;9.196;2024-01-30T13:42:53;13.30;22.20
41220;DHT22;26951;47.338;9.196;2024-01-30T13:45:37;13.40;19.90
41220;DHT22;26951;47.338;9.196;2024-01-30T13:48:21;13.50;21.10
41220;DHT22;26951;47.338;9.196;2024-01-30T13:51:06;13.60;19.70
41220;DHT22;26951;47.338;9.196;2024-01-30T13:53:50;13.70;17.70
41220;DHT22;26951;47.338;9.196;2024-01-30T13:56:34;13.80;17.10
41220;DHT22;26951;47.338;9.196;2024-01-30T13:59:18;13.80;18.30
41220;DHT22;26951;47.338;9.196;2024-01-30T14:02:07;13.80;16.60
41220;DHT22;26951;47.338;9.196;2024-01-30T14:04:54;13.80;18.50
41220;DHT22;26951;47.338;9.196;2024-01-30T14:07:38;13.80;18.30
41220;DHT22;26951;47.338;9.196;2024-01-30T14:10:25;13.80;15.60
41220;DHT22;26951;47.338;9.196;2024-01-30T14:13:09;13.80;16.60
41220;DHT22;26951;47.338;9.196;2024-01-30T14:15:53;13.70;16.10
41220;DHT22;26951;47.338;9.196;2024-01-30T14:18:38;13.70;17.00
41220;DHT22;26951;47.338;9.196;2024-01-30T14:21:22;13.60;16.40
41220;DHT22;26951;47.338;9.196;2024-01-30T14:24:06;13.60;16.50
41220;DHT22;26951;47.338;9.196;2024-01-30T14:26:50;13.60;18.00
41220;DHT22;26951;47.338;9.196;2024-01-30T14:29:35;13.50;15.90
41220;DHT22;26951;47.338;9.196;2024-01-30T14:32:19;13.60;15.00
41220;DHT22;26951;47.338;9.196;2024-01-30T14:35:04;13.50;15.10
41220;DHT22;26951;47.338;9.196;2024-01-30T14:37:49;13.40;15.20
41220;DHT22;26951;47.338;9.196;2024-01-30T14:40:33;13.30;15.10
41220;DHT22;26951;47.338;9.196;2024-01-30T14:43:17;13.20;15.90
41220;DHT22;26951;47.338;9.196;2024-01-30T14:46:01;13.10;14.20
41220;DHT22;26951;47.338;9.196;2024-01-30T14:48:45;13.00;16.40
41220;DHT22;26951;47.338;9.196;2024-01-30T14:51:29;12.90;15.00
41220;DHT22;26951;47.338;9.196;2024-01-30T14:54:14;12.80;15.40
41220;DHT22;26951;47.338;9.196;2024-01-30T14:56:58;12.70;16.00
41220;DHT22;26951;47.338;9.196;2024-01-30T14:59:43;12.60;15.90
41220;DHT22;26951;47.338;9.196;2024-01-30T15:02:28;12.50;15.80
41220;DHT22;26951;47.338;9.196;2024-01-30T15:05:12;12.40;18.70
41220;DHT22;26951;47.338;9.196;2024-01-30T15:07:57;12.30;16.70
41220;DHT22;26951;47.338;9.196;2024-01-30T15:10:40;12.20;18.00
41220;DHT22;26951;47.338;9.196;2024-01-30T15:13:25;12.10;17.60
41220;DHT22;26951;47.338;9.196;2024-01-30T15:16:09;12.00;18.30
41220;DHT22;26951;47.338;9.196;2024-01-30T15:18:53;11.80;20.20
41220;DHT22;26951;47.338;9.196;2024-01-30T15:21:37;11.60;19.20
41220;DHT22;26951;47.338;9.196;2024-01-30T15:24:21;11.50;21.00
41220;DHT22;26951;47.338;9.196;2024-01-30T15:27:08;11.40;21.90
41220;DHT22;26951;47.338;9.196;2024-01-30T15:29:52;11.30;23.80
41220;DHT22;26951;47.338;9.196;2024-01-30T15:32:37;11.20;23.30
41220;DHT22;26951;47.338;9.196;2024-01-30T15:35:21;11.10;24.30
41220;DHT22;26951;47.338;9.196;2024-01-30T15:38:06;10.90;24.70
41220;DHT22;26951;47.338;9.196;2024-01-30T15:40:53;10.80;24.50
41220;DHT22;26951;47.338;9.196;2024-01-30T15:43:37;10.60;23.40
41220;DHT22;26951;47.338;9.196;2024-01-30T15:46:21;10.50;24.30
41220;DHT22;26951;47.338;9.196;2024-01-30T15:49:05;10.40;26.10
41220;DHT22;26951;47.338;9.196;2024-01-30T15:51:51;10.20;27.00
41220;DHT22;26951;47.338;9.196;2024-01-30T15:54:35;10.00;27.10
41220;DHT22;26951;47.338;9.196;2024-01-30T15:57:19;9.80;28.20
41220;DHT22;26951;47.338;9.196;2024-01-30T16:00:03;9.70;27.80
41220;DHT22;26951;47.338;9.196;2024-01-30T16:02:48;9.40;28.90
41220;DHT22;26951;47.338;9.196;2024-01-30T16:05:32;9.30;28.80
41220;DHT22;26951;47.338;9.196;2024-01-30T16:08:16;9.20;29.00
41220;DHT22;26951;47.338;9.196;2024-01-30T16:11:01;9.00;30.00
41220;DHT22;26951;47.338;9.196;2024-01-30T16:13:45;8.80;30.20
41220;DHT22;26951;47.338;9.196;2024-01-30T16:16:29;8.70;30.80
41220;DHT22;26951;47.338;9.196;2024-01-30T16:19:13;8.50;30.60
41220;DHT22;26951;47.338;9.196;2024-01-30T16:21:57;8.50;29.50
41220;DHT22;26951;47.338;9.196;2024-01-30T16:24:41;8.40;30.40
41220;DHT22;26951;47.338;9.196;2024-01-30T16:27:26;8.30;31.60
41220;DHT22;26951;47.338;9.196;2024-01-30T16:30:10;8.20;32.90
41220;DHT22;26951;47.338;9.196;2024-01-30T16:32:54;8.10;31.90
41220;DHT22;26951;47.338;9.196;2024-01-30T16:35:39;8.00;33.70
41220;DHT22;26951;47.338;9.196;2024-01-30T16:38:25;7.80;34.30
41220;DHT22;26951;47.338;9.196;2024-01-30T16:41:11;7.70;33.40
41220;DHT22;26951;47.338;9.196;2024-01-30T16:43:55;7.60;33.60
41220;DHT22;26951;47.338;9.196;2024-01-30T16:46:40;7.50;34.20
41220;DHT22;26951;47.338;9.196;2024-01-30T16:49:24;7.40;34.00
41220;DHT22;26951;47.338;9.196;2024-01-30T16:52:08;7.30;34.50
41220;DHT22;26951;47.338;9.196;2024-01-30T16:54:54;7.20;34.30
41220;DHT22;26951;47.338;9.196;2024-01-30T16:57:38;7.20;35.50
41220;DHT22;26951;47.338;9.196;2024-01-30T17:00:22;7.10;35.80
41220;DHT22;26951;47.338;9.196;2024-01-30T17:03:08;7.00;35.70
41220;DHT22;26951;47.338;9.196;2024-01-30T17:05:52;6.90;35.70
41220;DHT22;26951;47.338;9.196;2024-01-30T17:08:38;6.80;35.20
41220;DHT22;26951;47.338;9.196;2024-01-30T17:11:23;6.60;36.60
41220;DHT22;26951;47.338;9.196;2024-01-30T17:14:07;6.50;36.30
41220;DHT22;26951;47.338;9.196;2024-01-30T17:16:52;6.40;36.40
41220;DHT22;26951;47.338;9.196;2024-01-30T17:19:36;6.40;37.10
41220;DHT22;26951;47.338;9.196;2024-01-30T17:22:20;6.30;34.80
41220;DHT22;26951;47.338;9.196;2024-01-30T17:25:06;6.20;35.50
41220;DHT22;26951;47.338;9.196;2024-01-30T17:27:50;6.20;34.20
41220;DHT22;26951;47.338;9.196;2024-01-30T17:30:35;6.10;34.80
41220;DHT22;26951;47.338;9.196;2024-01-30T17:33:20;6.10;36.40